EDV4924 KMKE-KLGA
Flight info
| Callsign | EDV4924 |
|---|---|
| Flight time | N/A |
| Altitude | 33000 |
| Route | UECKR6 SAMPL ZIINE Q186 WEVEL ETG MIP4 |
| Aircraft | CRJ7/M-SDFGIRWY/S |
Departure
| Time | 2026-04-29 22:43 |
|---|---|
| Airport | General Mitchell International Airport (KMKE) |
Arrival
| Time | N/A |
|---|---|
| Airport | LaGuardia Airport (KLGA) |
| Time | Latitude | Longitude | Altitude | Speed | Heading |
|---|---|---|---|---|---|
| 2026-04-29 22:28 | 42.94806 | -87.90009 | 685 ft | 0 kts | 190° |
| 2026-04-29 22:33 | 42.94826 | -87.90005 | 681 ft | 4 kts | 190° |
| 2026-04-29 22:33 | 42.94850 | -87.89999 | 685 ft | 4 kts | 161° |
| 2026-04-29 22:33 | 42.94858 | -87.90012 | 683 ft | 4 kts | 109° |
| 2026-04-29 22:34 | 42.94865 | -87.90039 | 686 ft | 0 kts | 109° |
| 2026-04-29 22:36 | 42.94863 | -87.90020 | 686 ft | 7 kts | 90° |
| 2026-04-29 22:37 | 42.94875 | -87.89989 | 686 ft | 3 kts | 20° |
| 2026-04-29 22:37 | 42.94926 | -87.89960 | 686 ft | 11 kts | 28° |
| 2026-04-29 22:37 | 42.94977 | -87.89871 | 686 ft | 14 kts | 71° |
| 2026-04-29 22:37 | 42.94976 | -87.89747 | 683 ft | 13 kts | 97° |
| 2026-04-29 22:38 | 42.94960 | -87.89614 | 681 ft | 15 kts | 134° |
| 2026-04-29 22:38 | 42.94849 | -87.89611 | 685 ft | 18 kts | 186° |
| 2026-04-29 22:38 | 42.94709 | -87.89633 | 686 ft | 21 kts | 187° |
| 2026-04-29 22:38 | 42.94629 | -87.89647 | 686 ft | 11 kts | 187° |
| 2026-04-29 22:39 | 42.94539 | -87.89691 | 684 ft | 18 kts | 229° |
| 2026-04-29 22:39 | 42.94489 | -87.89866 | 686 ft | 15 kts | 251° |
| 2026-04-29 22:39 | 42.94446 | -87.89961 | 684 ft | 7 kts | 184° |
| 2026-04-29 22:39 | 42.94348 | -87.89937 | 686 ft | 21 kts | 171° |
| 2026-04-29 22:40 | 42.94171 | -87.89893 | 686 ft | 26 kts | 170° |
| 2026-04-29 22:40 | 42.94002 | -87.89887 | 686 ft | 24 kts | 179° |
| 2026-04-29 22:40 | 42.93839 | -87.89889 | 686 ft | 22 kts | 182° |
| 2026-04-29 22:40 | 42.93688 | -87.89890 | 686 ft | 22 kts | 181° |
| 2026-04-29 22:41 | 42.93537 | -87.89894 | 686 ft | 22 kts | 182° |
| 2026-04-29 22:41 | 42.93386 | -87.89903 | 686 ft | 22 kts | 183° |
| 2026-04-29 22:41 | 42.93237 | -87.89925 | 683 ft | 21 kts | 186° |
| 2026-04-29 22:41 | 42.93104 | -87.89942 | 683 ft | 15 kts | 171° |
| 2026-04-29 22:42 | 42.93076 | -87.89898 | 686 ft | 9 kts | 103° |
| 2026-04-29 22:42 | 42.93070 | -87.89791 | 686 ft | 15 kts | 72° |
| 2026-04-29 22:42 | 42.93256 | -87.89729 | 686 ft | 55 kts | 8° |
| 2026-04-29 22:42 | 42.93854 | -87.89629 | 686 ft | 116 kts | 7° |
| 2026-04-29 22:43 | 42.94810 | -87.89457 | 787 ft | 153 kts | 7° |
| 2026-04-29 22:43 | 42.95866 | -87.89272 | 1500 ft | 149 kts | 10° |
| 2026-04-29 22:43 | 42.96934 | -87.89060 | 2127 ft | 165 kts | 8° |
| 2026-04-29 22:43 | 42.98117 | -87.88816 | 2726 ft | 180 kts | 8° |
| 2026-04-29 22:44 | 42.99375 | -87.88515 | 3443 ft | 195 kts | 11° |
| 2026-04-29 22:44 | 43.00602 | -87.87998 | 4581 ft | 181 kts | 25° |
| 2026-04-29 22:44 | 43.01547 | -87.86820 | 5316 ft | 196 kts | 56° |
| 2026-04-29 22:44 | 43.01904 | -87.84915 | 5783 ft | 223 kts | 92° |
| 2026-04-29 22:45 | 43.01332 | -87.82930 | 6510 ft | 231 kts | 131° |
| 2026-04-29 22:45 | 43.00017 | -87.81782 | 7349 ft | 223 kts | 170° |
| 2026-04-29 22:45 | 42.98500 | -87.81473 | 8079 ft | 223 kts | 177° |
| 2026-04-29 22:45 | 42.96949 | -87.81073 | 8818 ft | 227 kts | 170° |
| 2026-04-29 22:46 | 42.95427 | -87.80526 | 9534 ft | 230 kts | 169° |
| 2026-04-29 22:46 | 42.93865 | -87.79923 | 10067 ft | 241 kts | 168° |
| 2026-04-29 22:46 | 42.92170 | -87.79246 | 10124 ft | 266 kts | 167° |
| 2026-04-29 22:46 | 42.90334 | -87.78479 | 10291 ft | 285 kts | 166° |
| 2026-04-29 22:47 | 42.88397 | -87.77610 | 10578 ft | 301 kts | 165° |
| 2026-04-29 22:47 | 42.86391 | -87.76706 | 11071 ft | 305 kts | 165° |
| 2026-04-29 22:47 | 42.84357 | -87.75806 | 11652 ft | 308 kts | 166° |
| 2026-04-29 22:47 | 42.82307 | -87.74932 | 12236 ft | 311 kts | 167° |
| 2026-04-29 22:48 | 42.80232 | -87.74069 | 12819 ft | 313 kts | 167° |
| 2026-04-29 22:48 | 42.78135 | -87.73211 | 13401 ft | 316 kts | 167° |
| 2026-04-29 22:48 | 42.76017 | -87.72351 | 13968 ft | 319 kts | 167° |
| 2026-04-29 22:48 | 42.73913 | -87.71495 | 14471 ft | 321 kts | 168° |
| 2026-04-29 22:49 | 42.71783 | -87.70524 | 15012 ft | 325 kts | 162° |
| 2026-04-29 22:49 | 42.69710 | -87.69291 | 15541 ft | 326 kts | 163° |
| 2026-04-29 22:49 | 42.67686 | -87.67857 | 15988 ft | 337 kts | 142° |
| 2026-04-29 22:49 | 42.66203 | -87.65352 | 16446 ft | 345 kts | 124° |
| 2026-04-29 22:50 | 42.64933 | -87.62574 | 16904 ft | 348 kts | 125° |
| 2026-04-29 22:50 | 42.63579 | -87.59836 | 17367 ft | 350 kts | 129° |
| 2026-04-29 22:50 | 42.62080 | -87.57231 | 17828 ft | 352 kts | 134° |
| 2026-04-29 22:50 | 42.60449 | -87.54739 | 18268 ft | 354 kts | 136° |
| 2026-04-29 22:51 | 42.58794 | -87.52317 | 18660 ft | 356 kts | 136° |
| 2026-04-29 22:51 | 42.57111 | -87.49829 | 19009 ft | 360 kts | 136° |
| 2026-04-29 22:51 | 42.53570 | -87.44599 | 19035 ft | 392 kts | 136° |
| 2026-04-29 22:52 | 42.51714 | -87.41801 | 19078 ft | 407 kts | 135° |
| 2026-04-29 22:52 | 42.49813 | -87.38916 | 19462 ft | 412 kts | 135° |
| 2026-04-29 22:52 | 42.47894 | -87.36013 | 19898 ft | 415 kts | 135° |
| 2026-04-29 22:52 | 42.45983 | -87.33132 | 20320 ft | 418 kts | 136° |
| 2026-04-29 22:53 | 42.44031 | -87.30195 | 20769 ft | 421 kts | 136° |
| 2026-04-29 22:53 | 42.42066 | -87.27240 | 21185 ft | 424 kts | 136° |
| 2026-04-29 22:53 | 42.40085 | -87.24263 | 21588 ft | 427 kts | 136° |
| 2026-04-29 22:53 | 42.38089 | -87.21265 | 21987 ft | 430 kts | 136° |
| 2026-04-29 22:54 | 42.36081 | -87.18252 | 22317 ft | 434 kts | 136° |
| 2026-04-29 22:54 | 42.34052 | -87.15206 | 22684 ft | 437 kts | 136° |
| 2026-04-29 22:54 | 42.32009 | -87.12152 | 23058 ft | 440 kts | 136° |
| 2026-04-29 22:54 | 42.29952 | -87.09074 | 23419 ft | 443 kts | 137° |
| 2026-04-29 22:55 | 42.27882 | -87.05982 | 23750 ft | 445 kts | 137° |
| 2026-04-29 22:55 | 42.25830 | -87.02917 | 24043 ft | 448 kts | 137° |
| 2026-04-29 22:55 | 42.23732 | -86.99789 | 24335 ft | 450 kts | 137° |
| 2026-04-29 22:55 | 42.21629 | -86.96653 | 24621 ft | 452 kts | 137° |
| 2026-04-29 22:56 | 42.19509 | -86.93501 | 24905 ft | 454 kts | 137° |
| 2026-04-29 22:56 | 42.17386 | -86.90342 | 25208 ft | 456 kts | 137° |
| 2026-04-29 22:56 | 42.15248 | -86.87166 | 25456 ft | 458 kts | 137° |
| 2026-04-29 22:56 | 42.13101 | -86.83980 | 25689 ft | 461 kts | 137° |
| 2026-04-29 22:57 | 42.10937 | -86.80777 | 25948 ft | 463 kts | 137° |
| 2026-04-29 22:57 | 42.08764 | -86.77561 | 26198 ft | 465 kts | 137° |
| 2026-04-29 22:57 | 42.06607 | -86.74374 | 26447 ft | 468 kts | 137° |
| 2026-04-29 22:57 | 42.04414 | -86.71133 | 26685 ft | 470 kts | 137° |
| 2026-04-29 22:58 | 42.02208 | -86.67879 | 26915 ft | 471 kts | 138° |
| 2026-04-29 22:58 | 41.99992 | -86.64613 | 27125 ft | 473 kts | 138° |
| 2026-04-29 22:58 | 41.97770 | -86.61341 | 27322 ft | 475 kts | 138° |
| 2026-04-29 22:58 | 41.95538 | -86.58059 | 27510 ft | 477 kts | 138° |
| 2026-04-29 22:59 | 41.93296 | -86.54765 | 27664 ft | 478 kts | 138° |
| 2026-04-29 22:59 | 41.91044 | -86.51460 | 27812 ft | 480 kts | 138° |
| 2026-04-29 22:59 | 41.88788 | -86.48155 | 27961 ft | 482 kts | 138° |
| 2026-04-29 22:59 | 41.86522 | -86.44839 | 28114 ft | 483 kts | 138° |
| 2026-04-29 23:00 | 41.84274 | -86.41553 | 28252 ft | 484 kts | 138° |
| 2026-04-29 23:00 | 41.81993 | -86.38222 | 28378 ft | 485 kts | 138° |
| 2026-04-29 23:00 | 41.79723 | -86.34863 | 28493 ft | 489 kts | 134° |
| 2026-04-29 23:00 | 41.78009 | -86.30875 | 28561 ft | 502 kts | 112° |
| 2026-04-29 23:01 | 41.77153 | -86.26328 | 28666 ft | 506 kts | 100° |
| 2026-04-29 23:01 | 41.76830 | -86.21629 | 28755 ft | 508 kts | 90° |
| 2026-04-29 23:01 | 41.77175 | -86.12163 | 28957 ft | 509 kts | 86° |
| 2026-04-29 23:02 | 41.77351 | -86.02744 | 29115 ft | 510 kts | 90° |
| 2026-04-29 23:02 | 41.77403 | -85.93220 | 29264 ft | 512 kts | 89° |
| 2026-04-29 23:03 | 41.77494 | -85.83677 | 29403 ft | 513 kts | 89° |
| 2026-04-29 23:03 | 41.77566 | -85.74111 | 29533 ft | 514 kts | 89° |
| 2026-04-29 23:04 | 41.77632 | -85.64582 | 29634 ft | 515 kts | 89° |
| 2026-04-29 23:04 | 41.77687 | -85.54974 | 29754 ft | 516 kts | 89° |
| 2026-04-29 23:05 | 41.77739 | -85.45346 | 29898 ft | 517 kts | 89° |
| 2026-04-29 23:05 | 41.77805 | -85.35727 | 30073 ft | 516 kts | 89° |